Time;durP1;ratioP1;P1;durP2;ratioP2;P2;SDS_P1;SDS_P2;PMS_P1;PMS_P2;Temp;Humidity;BMP_temperature;BMP_pressure;BME280_temperature;BME280_humidity;BME280_pressure;Samples;Min_cycle;Max_cycle;Signal;HPM_P1;HPM_P2
2023/09/27 00:02:04;;;;;;;4.25;2.92;;;14.50;99.90;;;;;;4972874;28;20537;-74
2023/09/27 00:04:30;;;;;;;4.50;3.28;;;14.50;99.90;;;;;;4972671;28;20019;-75
2023/09/27 00:06:56;;;;;;;4.38;2.10;;;14.40;99.90;;;;;;4971282;28;20049;-72
2023/09/27 00:09:34;;;;;;;4.38;2.33;;;14.40;99.90;;;;;;4988769;28;20437;-73
2023/09/27 00:12:04;;;;;;;4.82;2.40;;;14.40;99.90;;;;;;4973975;28;20038;-73
2023/09/27 00:14:34;;;;;;;4.53;2.60;;;14.40;99.90;;;;;;4973358;28;20042;-74
2023/09/27 00:17:03;;;;;;;6.25;2.38;;;14.40;99.90;;;;;;4971722;28;20039;-73
2023/09/27 00:19:38;;;;;;;5.90;2.65;;;14.40;99.90;;;;;;4970707;28;20043;-73
2023/09/27 00:22:13;;;;;;;4.20;2.67;;;14.30;99.90;;;;;;4972762;28;20149;-73
2023/09/27 00:24:39;;;;;;;5.30;2.53;;;14.30;99.90;;;;;;4973141;28;20030;-75
2023/09/27 00:27:15;;;;;;;4.18;2.47;;;14.30;99.90;;;;;;4973514;28;20025;-74
2023/09/27 00:29:48;;;;;;;3.42;2.10;;;14.20;99.90;;;;;;4975480;28;20035;-75
2023/09/27 00:32:13;;;;;;;4.00;2.17;;;14.20;99.90;;;;;;4988930;28;20470;-75
2023/09/27 00:34:45;;;;;;;5.20;3.55;;;14.20;99.90;;;;;;4973925;28;20030;-73
2023/09/27 00:37:11;;;;;;;3.88;3.00;;;14.20;99.90;;;;;;4976401;28;20066;-73
2023/09/27 00:39:39;;;;;;;5.50;3.67;;;14.20;99.90;;;;;;4977716;28;20074;-74
2023/09/27 00:42:04;;;;;;;5.25;3.38;;;14.10;99.90;;;;;;4986356;28;20035;-74
2023/09/27 00:44:34;;;;;;;8.35;3.63;;;14.10;99.90;;;;;;4971020;28;20027;-74
2023/09/27 00:47:01;;;;;;;4.00;3.15;;;14.00;99.90;;;;;;4973561;28;20038;-73
2023/09/27 00:49:29;;;;;;;5.53;3.92;;;14.00;99.90;;;;;;4969994;28;20038;-74
2023/09/27 00:51:56;;;;;;;8.50;3.78;;;14.00;99.90;;;;;;4973954;28;20017;-73
2023/09/27 00:54:22;;;;;;;6.95;3.30;;;14.00;99.90;;;;;;4974231;28;20035;-74
2023/09/27 00:56:51;;;;;;;4.60;3.60;;;13.90;99.90;;;;;;4987980;28;20080;-73
2023/09/27 00:59:18;;;;;;;5.38;3.55;;;13.90;99.90;;;;;;4976208;28;20094;-73
2023/09/27 01:01:46;;;;;;;3.95;3.20;;;13.80;99.90;;;;;;4990406;28;20474;-74
2023/09/27 01:04:14;;;;;;;5.28;3.03;;;13.80;99.90;;;;;;4976932;28;20019;-74
2023/09/27 01:06:49;;;;;;;5.47;2.67;;;13.70;99.90;;;;;;4976681;28;20397;-74
2023/09/27 01:09:21;;;;;;;5.57;3.33;;;13.70;99.90;;;;;;4976637;28;20544;-73
2023/09/27 01:11:46;;;;;;;7.50;3.35;;;13.70;99.90;;;;;;4976701;28;20050;-74
2023/09/27 01:14:13;;;;;;;4.15;3.10;;;13.60;99.90;;;;;;4975116;28;20033;-74
2023/09/27 01:16:41;;;;;;;7.90;2.88;;;13.60;99.90;;;;;;4976431;28;20402;-74
2023/09/27 01:19:10;;;;;;;5.10;3.25;;;13.60;99.90;;;;;;4976561;28;20022;-74
2023/09/27 01:21:36;;;;;;;4.50;3.20;;;13.60;99.90;;;;;;4976441;28;20038;-73
2023/09/27 01:24:04;;;;;;;3.80;3.17;;;13.50;99.90;;;;;;4976690;28;20437;-74
2023/09/27 01:26:31;;;;;;;4.65;3.00;;;13.50;99.90;;;;;;4976261;28;20446;-73
2023/09/27 01:28:56;;;;;;;6.22;3.10;;;13.50;99.90;;;;;;4976088;28;20054;-74
2023/09/27 01:31:37;;;;;;;6.32;3.13;;;13.50;99.90;;;;;;4975601;28;20061;-74
2023/09/27 01:34:03;;;;;;;5.50;3.10;;;13.50;99.90;;;;;;4971960;28;20031;-75
2023/09/27 01:36:29;;;;;;;4.53;2.63;;;13.50;99.90;;;;;;4974712;28;20031;-74
2023/09/27 01:38:54;;;;;;;4.60;2.92;;;13.40;99.90;;;;;;4972973;28;20034;-75
2023/09/27 01:41:20;;;;;;;5.22;3.03;;;13.40;99.90;;;;;;4969315;28;20098;-74
2023/09/27 01:43:45;;;;;;;3.22;2.55;;;13.40;99.90;;;;;;4986789;28;20026;-74
2023/09/27 01:46:11;;;;;;;4.70;3.08;;;13.40;99.90;;;;;;4972087;28;20038;-74
2023/09/27 01:48:37;;;;;;;4.50;2.38;;;13.40;99.90;;;;;;4972877;28;20022;-74
2023/09/27 01:51:02;;;;;;;4.10;3.10;;;13.30;99.90;;;;;;4970526;28;20090;-74
2023/09/27 01:53:31;;;;;;;3.13;2.50;;;13.30;99.90;;;;;;4968284;28;20027;-74
2023/09/27 01:55:57;;;;;;;4.40;2.88;;;13.20;99.90;;;;;;4967775;28;20042;-72
2023/09/27 01:58:22;;;;;;;5.13;2.60;;;13.20;99.90;;;;;;4970707;28;20031;-74
2023/09/27 02:00:48;;;;;;;5.38;3.13;;;13.20;99.90;;;;;;4970554;28;20035;-73
2023/09/27 02:03:14;;;;;;;5.75;3.28;;;13.20;99.90;;;;;;4972907;28;20027;-75
2023/09/27 02:05:39;;;;;;;4.43;3.20;;;13.10;99.90;;;;;;4969789;28;20574;-75
2023/09/27 02:08:11;;;;;;;7.13;3.53;;;13.10;99.90;;;;;;4972903;28;20035;-73
2023/09/27 02:10:43;;;;;;;3.92;2.67;;;13.00;99.90;;;;;;4973888;28;20109;-75
2023/09/27 02:13:08;;;;;;;5.75;3.33;;;13.00;99.90;;;;;;4974153;28;20031;-76
2023/09/27 02:15:34;;;;;;;5.25;3.38;;;13.00;99.90;;;;;;4971647;28;20113;-76
2023/09/27 02:17:59;;;;;;;3.13;2.83;;;12.90;99.90;;;;;;4985338;28;20027;-75
2023/09/27 02:20:25;;;;;;;4.85;3.15;;;12.90;99.90;;;;;;4973575;28;20035;-75
2023/09/27 02:22:54;;;;;;;6.00;3.65;;;12.90;99.90;;;;;;4986906;28;20470;-75
2023/09/27 02:25:20;;;;;;;5.40;3.53;;;12.90;99.90;;;;;;4971535;28;20023;-75
2023/09/27 02:27:52;;;;;;;5.55;3.95;;;12.90;99.90;;;;;;4976095;28;20049;-75
2023/09/27 02:30:24;;;;;;;5.25;3.85;;;12.90;99.90;;;;;;4974735;28;20183;-75
2023/09/27 02:32:52;;;;;;;8.77;3.92;;;12.90;99.90;;;;;;4973180;28;20023;-75
2023/09/27 02:35:19;;;;;;;4.18;3.60;;;12.90;99.90;;;;;;4975236;28;20037;-75
2023/09/27 02:37:51;;;;;;;6.47;2.92;;;12.90;99.90;;;;;;4974820;28;20019;-73
2023/09/27 02:40:19;;;;;;;4.78;3.00;;;12.90;99.90;;;;;;4974275;28;20023;-73
2023/09/27 02:42:51;;;;;;;4.43;3.13;;;12.80;99.90;;;;;;4974237;28;20066;-73
2023/09/27 02:45:20;;;;;;;4.82;3.28;;;12.90;99.90;;;;;;4974433;28;20033;-74
2023/09/27 02:47:46;;;;;;;4.80;2.80;;;12.90;99.90;;;;;;4974497;28;20102;-75
2023/09/27 02:50:13;;;;;;;5.90;2.92;;;12.80;99.90;;;;;;4987167;23;20053;-74
2023/09/27 02:52:44;;;;;;;3.80;2.90;;;12.80;99.90;;;;;;4988765;28;20018;-74
2023/09/27 02:55:10;;;;;;;4.63;3.47;;;12.80;99.90;;;;;;4988947;28;21158;-73
2023/09/27 02:57:42;;;;;;;4.32;3.00;;;12.80;99.90;;;;;;4969626;28;20038;-73
2023/09/27 03:00:14;;;;;;;4.25;2.75;;;12.80;99.90;;;;;;4987435;28;20075;-73
2023/09/27 03:02:41;;;;;;;4.40;2.80;;;12.80;99.90;;;;;;4988547;28;20432;-74
2023/09/27 03:05:11;;;;;;;4.38;2.60;;;12.80;99.90;;;;;;4984106;28;20015;-73
2023/09/27 03:07:44;;;;;;;6.40;2.95;;;12.80;99.90;;;;;;4984102;28;20030;-74
2023/09/27 03:10:10;;;;;;;4.57;3.03;;;12.70;99.90;;;;;;4985646;28;20164;-74
2023/09/27 03:12:37;;;;;;;5.95;3.08;;;12.70;99.90;;;;;;4986741;28;20433;-74
2023/09/27 03:15:03;;;;;;;4.50;3.03;;;12.70;99.90;;;;;;4992076;28;20018;-73
2023/09/27 03:17:38;;;;;;;3.33;3.00;;;12.70;99.90;;;;;;4991441;28;20066;-74
2023/09/27 03:20:07;;;;;;;4.72;3.15;;;12.70;99.90;;;;;;4991351;28;20038;-72
2023/09/27 03:22:33;;;;;;;5.10;3.30;;;12.60;99.90;;;;;;4990234;28;20049;-72
2023/09/27 03:25:01;;;;;;;5.75;3.17;;;12.60;99.90;;;;;;4991973;28;20511;-73
2023/09/27 03:27:36;;;;;;;3.08;2.70;;;12.60;99.90;;;;;;5005935;28;20449;-73
2023/09/27 03:30:03;;;;;;;5.35;3.28;;;12.60;99.90;;;;;;4989525;28;20049;-73
2023/09/27 03:32:32;;;;;;;5.30;3.35;;;12.50;99.90;;;;;;4990576;28;20038;-73
2023/09/27 03:35:06;;;;;;;5.75;3.22;;;12.50;99.90;;;;;;4986716;28;20033;-73
2023/09/27 03:37:32;;;;;;;4.68;3.15;;;12.50;99.90;;;;;;4991298;28;20029;-73
2023/09/27 03:40:13;;;;;;;4.28;2.95;;;12.50;99.90;;;;;;4990984;28;20026;-73
2023/09/27 03:42:41;;;;;;;5.30;3.30;;;12.50;99.90;;;;;;4985035;28;20065;-73
2023/09/27 03:45:07;;;;;;;4.32;3.13;;;12.50;99.90;;;;;;4992054;28;20026;-72
2023/09/27 03:47:51;;;;;;;5.13;3.13;;;12.50;99.90;;;;;;4988945;28;20045;-73
2023/09/27 03:50:23;;;;;;;3.65;2.92;;;12.50;99.90;;;;;;4992694;28;20041;-74
2023/09/27 03:52:55;;;;;;;3.60;2.75;;;12.50;99.90;;;;;;4989027;28;20125;-74
2023/09/27 03:55:35;;;;;;;4.13;2.55;;;12.50;99.90;;;;;;4990297;28;20471;-74
2023/09/27 03:58:04;;;;;;;4.22;2.42;;;12.50;99.90;;;;;;4989502;28;20389;-74
2023/09/27 04:00:33;;;;;;;7.00;3.53;;;12.50;99.90;;;;;;4987138;28;20022;-73
2023/09/27 04:02:58;;;;;;;5.43;3.55;;;12.50;99.90;;;;;;4988859;28;20042;-73
2023/09/27 04:05:27;;;;;;;4.25;3.15;;;12.50;99.90;;;;;;4988602;28;20058;-73
2023/09/27 04:07:58;;;;;;;6.75;3.75;;;12.50;99.90;;;;;;4987497;28;20026;-73
2023/09/27 04:10:28;;;;;;;6.40;3.67;;;12.40;99.90;;;;;;4990137;28;20053;-73
2023/09/27 04:12:54;;;;;;;8.50;4.05;;;12.40;99.90;;;;;;5004432;28;20077;-73
2023/09/27 04:15:20;;;;;;;5.18;3.70;;;12.40;99.90;;;;;;4987859;28;20030;-73
2023/09/27 04:17:51;;;;;;;5.05;2.85;;;12.40;99.90;;;;;;4990654;28;20034;-73
2023/09/27 04:20:29;;;;;;;5.90;3.60;;;12.30;99.90;;;;;;4987321;28;20405;-74
2023/09/27 04:22:54;;;;;;;6.28;4.03;;;12.30;99.90;;;;;;4989290;28;20079;-73
2023/09/27 04:25:20;;;;;;;5.95;3.55;;;12.30;99.90;;;;;;4989173;28;20080;-74
2023/09/27 04:27:49;;;;;;;6.10;3.60;;;12.20;99.90;;;;;;4988169;28;20022;-73
2023/09/27 04:30:19;;;;;;;5.20;3.55;;;12.10;99.90;;;;;;4990340;28;20042;-73
2023/09/27 04:32:45;;;;;;;6.70;4.40;;;12.10;99.90;;;;;;4991772;28;20034;-74
2023/09/27 04:35:14;;;;;;;6.57;3.97;;;12.10;99.90;;;;;;4991189;28;20038;-74
2023/09/27 04:37:46;;;;;;;6.03;3.78;;;12.00;99.90;;;;;;5008460;28;20579;-74
2023/09/27 04:40:14;;;;;;;5.95;3.75;;;12.00;99.90;;;;;;4990122;28;20034;-74
2023/09/27 04:42:41;;;;;;;6.82;3.63;;;11.90;99.90;;;;;;4986636;28;20030;-74
2023/09/27 04:45:16;;;;;;;7.18;4.85;;;11.90;99.90;;;;;;4990412;28;20245;-74
2023/09/27 04:47:44;;;;;;;7.00;4.03;;;11.90;99.90;;;;;;4991175;28;20390;-74
2023/09/27 04:50:10;;;;;;;5.78;3.95;;;11.80;99.90;;;;;;4993754;28;20041;-73
2023/09/27 04:52:51;;;;;;;7.90;5.10;;;11.90;99.90;;;;;;4988191;28;20396;-73
2023/09/27 04:55:19;;;;;;;6.50;4.00;;;11.80;99.90;;;;;;4989541;28;20065;-74
2023/09/27 04:57:45;;;;;;;7.47;4.50;;;11.80;99.90;;;;;;4989175;28;20437;-73
2023/09/27 05:00:18;;;;;;;7.50;4.45;;;11.80;99.90;;;;;;5004140;28;20022;-73
2023/09/27 05:02:44;;;;;;;5.77;3.77;;;11.80;99.90;;;;;;4992353;28;20027;-73
2023/09/27 05:05:10;;;;;;;6.65;4.03;;;11.80;99.90;;;;;;4987429;28;20538;-74
2023/09/27 05:07:35;;;;;;;6.53;4.03;;;11.80;99.90;;;;;;4987773;28;20393;-71
2023/09/27 05:10:10;;;;;;;4.38;3.13;;;11.80;99.90;;;;;;4990067;28;20030;-74
2023/09/27 05:12:37;;;;;;;5.50;3.90;;;11.80;99.90;;;;;;4999004;28;20022;-74
2023/09/27 05:15:03;;;;;;;4.32;3.17;;;11.80;99.90;;;;;;4985783;28;20088;-74
2023/09/27 05:17:29;;;;;;;6.47;3.88;;;11.80;99.90;;;;;;4985918;28;20037;-74
2023/09/27 05:20:10;;;;;;;6.93;3.42;;;11.90;99.90;;;;;;4989513;28;20034;-74
2023/09/27 05:22:48;;;;;;;6.80;3.95;;;11.80;99.90;;;;;;4989813;28;20113;-74
2023/09/27 05:25:14;;;;;;;6.78;3.47;;;11.80;99.90;;;;;;4985640;28;20026;-74
2023/09/27 05:27:52;;;;;;;7.63;3.83;;;11.80;99.90;;;;;;4986607;28;20492;-74
2023/09/27 05:30:21;;;;;;;7.35;3.50;;;11.80;99.90;;;;;;4986660;28;20513;-73
2023/09/27 05:32:47;;;;;;;7.30;3.63;;;11.70;99.90;;;;;;4989686;28;20022;-73
2023/09/27 05:35:13;;;;;;;8.18;3.47;;;11.70;99.90;;;;;;4987431;28;20113;-72
2023/09/27 05:37:49;;;;;;;9.63;3.55;;;11.70;99.90;;;;;;4991412;28;20026;-74
2023/09/27 05:40:14;;;;;;;9.18;3.60;;;11.70;99.90;;;;;;4989756;28;20049;-74
2023/09/27 05:42:40;;;;;;;7.47;3.60;;;11.70;99.90;;;;;;4992029;28;20069;-73
2023/09/27 05:45:11;;;;;;;7.38;3.53;;;11.70;99.90;;;;;;4985818;28;20030;-73
2023/09/27 05:47:37;;;;;;;13.68;4.00;;;11.70;99.90;;;;;;4984645;28;20022;-73
2023/09/27 05:50:08;;;;;;;10.25;3.35;;;11.70;99.90;;;;;;4988674;28;20030;-74
2023/09/27 05:52:34;;;;;;;8.18;4.00;;;11.70;99.90;;;;;;4983142;28;20287;-74
2023/09/27 05:55:00;;;;;;;5.63;3.92;;;11.70;99.90;;;;;;5000200;28;20116;-72
2023/09/27 05:57:29;;;;;;;7.35;3.55;;;11.70;99.90;;;;;;4981857;28;20118;-74
2023/09/27 05:59:58;;;;;;;6.43;3.60;;;11.80;99.90;;;;;;4985570;28;20029;-74
2023/09/27 06:02:31;;;;;;;8.60;3.38;;;11.80;99.90;;;;;;4985346;28;20041;-74
2023/09/27 06:04:58;;;;;;;7.65;3.85;;;11.80;99.90;;;;;;4984651;28;20037;-74
2023/09/27 06:07:24;;;;;;;5.68;3.95;;;11.90;99.90;;;;;;4987692;28;20027;-74
2023/09/27 06:09:50;;;;;;;5.43;3.53;;;11.90;99.90;;;;;;4989330;28;20022;-75
2023/09/27 06:12:16;;;;;;;6.20;3.85;;;12.00;99.90;;;;;;5002955;28;20049;-74
2023/09/27 06:14:43;;;;;;;6.88;3.72;;;12.00;99.90;;;;;;4988411;28;20026;-73
2023/09/27 06:17:09;;;;;;;6.40;3.45;;;12.10;99.90;;;;;;4999517;28;20033;-74
2023/09/27 06:19:34;;;;;;;7.07;3.80;;;12.20;99.90;;;;;;4990210;28;20038;-73
2023/09/27 06:22:06;;;;;;;5.93;3.25;;;12.20;99.90;;;;;;5001195;28;20030;-75
2023/09/27 06:24:31;;;;;;;7.18;3.60;;;12.30;99.90;;;;;;4986441;28;20027;-74
2023/09/27 06:27:03;;;;;;;6.53;3.30;;;12.40;99.90;;;;;;4986358;28;20089;-73
2023/09/27 06:29:28;;;;;;;5.93;3.58;;;12.40;99.90;;;;;;4986849;28;20061;-73
2023/09/27 06:31:54;;;;;;;5.80;3.08;;;12.50;99.90;;;;;;4989149;28;20022;-74
2023/09/27 06:34:20;;;;;;;5.10;3.00;;;12.50;99.90;;;;;;4988637;28;20744;-74
2023/09/27 06:36:49;;;;;;;6.25;2.65;;;12.60;99.90;;;;;;4988623;28;20026;-75
2023/09/27 06:39:21;;;;;;;4.95;2.90;;;12.60;99.90;;;;;;4989231;28;20040;-73
2023/09/27 06:41:47;;;;;;;4.55;2.85;;;12.70;99.90;;;;;;5003097;28;20072;-75
2023/09/27 06:44:34;;;;;;;4.80;3.00;;;12.80;99.90;;;;;;4982624;28;20033;-74
2023/09/27 06:47:08;;;;;;;5.47;2.80;;;12.80;99.90;;;;;;4985317;28;20573;-74
2023/09/27 06:49:34;;;;;;;5.30;2.63;;;12.90;99.90;;;;;;5000862;28;20134;-73
2023/09/27 06:51:59;;;;;;;5.18;2.67;;;13.00;99.90;;;;;;4987393;28;20120;-75
2023/09/27 06:54:34;;;;;;;5.80;3.00;;;13.10;99.90;;;;;;4985372;28;20042;-74
2023/09/27 06:57:00;;;;;;;4.65;3.15;;;13.20;99.90;;;;;;4999659;28;20285;-74
2023/09/27 06:59:26;;;;;;;7.15;3.40;;;13.20;99.90;;;;;;4999697;28;20034;-74
2023/09/27 07:01:54;;;;;;;4.13;2.70;;;13.30;99.90;;;;;;4986303;28;20101;-75
2023/09/27 07:04:23;;;;;;;4.40;2.60;;;13.40;99.90;;;;;;5001589;28;20045;-74
2023/09/27 07:06:49;;;;;;;5.50;3.05;;;13.40;99.90;;;;;;4979263;28;20092;-74
2023/09/27 07:09:16;;;;;;;6.65;3.63;;;13.50;99.90;;;;;;5001358;28;20030;-75
2023/09/27 07:11:44;;;;;;;8.05;4.13;;;13.60;99.90;;;;;;4999876;28;20053;-75
2023/09/27 07:14:20;;;;;;;6.60;4.47;;;13.60;99.90;;;;;;5001882;28;20026;-74
2023/09/27 07:16:46;;;;;;;6.63;3.95;;;13.60;99.90;;;;;;4985318;28;20034;-74
2023/09/27 07:19:12;;;;;;;6.07;3.80;;;13.60;99.90;;;;;;4979231;28;20080;-74
2023/09/27 07:21:37;;;;;;;10.00;4.18;;;13.60;99.90;;;;;;4987635;28;20022;-74
2023/09/27 07:24:03;;;;;;;6.53;3.67;;;13.60;99.90;;;;;;4988780;28;20153;-75
2023/09/27 07:26:29;;;;;;;7.63;4.10;;;13.60;99.90;;;;;;4986633;28;20105;-75
2023/09/27 07:28:56;;;;;;;6.25;4.03;;;13.70;99.90;;;;;;5004362;28;20164;-74
2023/09/27 07:31:29;;;;;;;6.20;4.10;;;13.70;99.90;;;;;;4981943;28;20037;-74
2023/09/27 07:33:56;;;;;;;6.22;4.20;;;13.70;99.90;;;;;;4985679;28;20389;-74
2023/09/27 07:36:24;;;;;;;6.88;4.40;;;13.70;99.90;;;;;;4987945;28;20516;-74
2023/09/27 07:38:57;;;;;;;8.98;5.05;;;13.70;99.90;;;;;;4987169;28;20061;-74
2023/09/27 07:41:24;;;;;;;6.87;4.47;;;13.80;99.90;;;;;;4983418;28;20152;-74
2023/09/27 07:43:50;;;;;;;9.77;4.88;;;13.80;99.90;;;;;;4980605;28;20272;-74
2023/09/27 07:46:17;;;;;;;12.10;5.03;;;13.90;99.90;;;;;;4984136;28;20031;-75
2023/09/27 07:48:43;;;;;;;9.55;4.85;;;13.90;99.90;;;;;;4993045;28;20026;-75
2023/09/27 07:51:13;;;;;;;11.80;5.22;;;13.90;99.90;;;;;;4991496;28;20043;-74
2023/09/27 07:53:39;;;;;;;6.57;4.22;;;14.00;99.90;;;;;;4981184;28;20381;-73
2023/09/27 07:56:09;;;;;;;8.00;4.55;;;14.00;99.90;;;;;;4984902;28;20489;-74
2023/09/27 07:58:41;;;;;;;7.47;5.50;;;14.00;99.90;;;;;;4983724;28;20581;-73
2023/09/27 08:01:07;;;;;;;10.80;4.90;;;14.10;99.90;;;;;;4988479;28;20022;-74
2023/09/27 08:03:33;;;;;;;10.20;4.55;;;14.20;99.90;;;;;;4988258;28;20254;-74
2023/09/27 08:05:58;;;;;;;6.28;4.55;;;14.30;99.90;;;;;;4991128;28;20543;-74
2023/09/27 08:08:24;;;;;;;6.63;4.43;;;14.30;99.90;;;;;;4989273;28;20046;-75
2023/09/27 08:10:51;;;;;;;6.28;4.70;;;14.40;99.90;;;;;;5004189;28;20180;-74
2023/09/27 08:13:30;;;;;;;7.75;4.63;;;14.50;99.90;;;;;;4988334;28;20030;-74
2023/09/27 08:15:58;;;;;;;8.30;4.70;;;14.60;99.90;;;;;;4987942;28;20504;-73
2023/09/27 08:18:27;;;;;;;8.45;4.07;;;14.60;99.90;;;;;;4987140;28;20062;-74
2023/09/27 08:20:54;;;;;;;9.13;4.43;;;14.70;99.90;;;;;;4989513;28;20110;-74
2023/09/27 08:23:20;;;;;;;8.30;4.95;;;14.80;99.90;;;;;;5004835;28;20030;-74
2023/09/27 08:25:49;;;;;;;7.95;5.00;;;14.90;99.90;;;;;;4990040;28;20476;-73
2023/09/27 08:28:16;;;;;;;6.75;4.85;;;15.00;99.90;;;;;;5002660;28;20069;-74
2023/09/27 08:30:41;;;;;;;7.40;4.70;;;15.10;99.90;;;;;;4984714;28;20023;-74
2023/09/27 08:33:10;;;;;;;9.10;4.18;;;15.10;99.90;;;;;;4987822;28;20164;-74
2023/09/27 08:35:36;;;;;;;7.03;4.65;;;15.20;99.90;;;;;;4990349;28;20113;-73
2023/09/27 08:38:01;;;;;;;6.97;4.45;;;15.30;99.90;;;;;;4985865;28;20116;-73
2023/09/27 08:40:27;;;;;;;8.25;4.25;;;15.30;99.90;;;;;;4986343;28;22037;-73
2023/09/27 08:43:00;;;;;;;6.90;4.65;;;15.40;99.90;;;;;;4989694;28;20080;-73
2023/09/27 08:45:38;;;;;;;6.00;4.32;;;15.50;99.90;;;;;;4992164;28;20067;-73
2023/09/27 08:48:04;;;;;;;9.80;4.55;;;15.60;99.90;;;;;;4990182;28;20069;-73
2023/09/27 08:50:31;;;;;;;7.40;4.35;;;15.60;99.90;;;;;;5005233;23;20038;-72
2023/09/27 08:53:15;;;;;;;6.25;4.45;;;15.70;99.90;;;;;;4991544;28;20046;-74
2023/09/27 08:55:50;;;;;;;10.55;4.57;;;15.80;99.90;;;;;;4958167;28;20023;-74
2023/09/27 08:58:19;;;;;;;7.18;4.38;;;15.90;99.90;;;;;;4960865;28;20027;-74
2023/09/27 09:00:48;;;;;;;7.05;4.63;;;16.10;99.90;;;;;;4978438;28;20112;-74
2023/09/27 09:03:14;;;;;;;8.55;4.40;;;16.20;99.90;;;;;;4968256;28;20497;-74
2023/09/27 09:05:44;;;;;;;9.43;4.93;;;16.30;99.90;;;;;;4973323;28;20033;-74
2023/09/27 09:08:12;;;;;;;9.30;4.82;;;16.30;99.90;;;;;;4973988;28;20033;-74
2023/09/27 09:10:43;;;;;;;9.23;5.05;;;16.50;99.90;;;;;;4968550;28;20450;-75
2023/09/27 09:13:15;;;;;;;5.78;4.40;;;16.60;99.90;;;;;;4970674;28;20280;-75
2023/09/27 09:15:48;;;;;;;9.98;4.65;;;16.70;99.90;;;;;;4972308;28;20029;-74
2023/09/27 09:18:28;;;;;;;5.90;3.92;;;16.80;99.90;;;;;;4971471;28;20026;-75
2023/09/27 09:20:57;;;;;;;7.10;4.35;;;16.90;99.90;;;;;;4973641;28;20070;-76
2023/09/27 09:23:47;;;;;;;9.00;4.10;;;17.00;99.90;;;;;;4968093;28;20035;-75
2023/09/27 09:26:28;;;;;;;8.20;4.40;;;17.00;99.90;;;;;;4969266;28;20485;-75
2023/09/27 09:28:59;;;;;;;7.88;3.88;;;17.10;99.90;;;;;;4969273;28;20109;-75
2023/09/27 09:31:31;;;;;;;6.95;4.18;;;17.30;99.90;;;;;;4964924;28;20023;-75
2023/09/27 09:34:08;;;;;;;5.50;3.95;;;17.40;99.90;;;;;;4969588;28;20031;-75
2023/09/27 09:36:34;;;;;;;6.82;3.75;;;17.50;99.90;;;;;;4971773;28;20113;-75
2023/09/27 09:39:17;;;;;;;5.88;3.38;;;17.60;99.90;;;;;;4987441;28;20029;-75
2023/09/27 09:41:47;;;;;;;5.75;3.80;;;17.70;99.90;;;;;;4968211;28;20050;-71
2023/09/27 09:44:21;;;;;;;5.47;3.67;;;17.80;99.90;;;;;;4965102;28;20114;-71
2023/09/27 09:46:53;;;;;;;;;;;18.00;99.90;;;;;;4970087;28;20101;-71
2023/09/27 09:49:18;;;;;;;5.90;3.78;;;18.10;99.90;;;;;;4967823;28;19910;-71
2023/09/27 09:51:49;;;;;;;6.47;3.35;;;18.30;99.90;;;;;;4968958;28;20034;-70
2023/09/27 09:54:37;;;;;;;5.78;3.65;;;18.40;99.90;;;;;;4967182;28;20105;-71
2023/09/27 09:57:10;;;;;;;8.50;3.30;;;18.50;99.90;;;;;;4966511;28;20034;-70
2023/09/27 10:00:16;;;;;;;7.65;3.63;;;18.70;99.90;;;;;;4978295;28;20133;-71
2023/09/27 10:02:49;;;;;;;6.95;3.15;;;18.80;99.90;;;;;;4963464;28;20481;-70
2023/09/27 10:05:19;;;;;;;6.25;3.13;;;18.80;99.90;;;;;;4962864;28;20929;-71
2023/09/27 10:07:51;;;;;;;4.57;2.70;;;18.90;99.90;;;;;;4968667;28;20026;-71
2023/09/27 10:10:18;;;;;;;12.63;3.40;;;19.00;99.90;;;;;;4963004;28;20035;-71
2023/09/27 10:12:46;;;;;;;9.02;3.65;;;19.20;99.90;;;;;;4966894;28;20022;-71
2023/09/27 10:15:22;;;;;;;5.15;3.10;;;19.20;99.90;;;;;;4969052;28;20023;-75
2023/09/27 10:17:47;;;;;;;5.65;3.25;;;19.30;99.90;;;;;;4965377;28;20047;-75
2023/09/27 10:20:20;;;;;;;8.02;2.70;;;19.50;99.90;;;;;;4981831;28;20057;-75
2023/09/27 10:22:47;;;;;;;6.30;3.10;;;19.60;99.90;;;;;;4982824;28;20122;-76
2023/09/27 10:25:32;;;;;;;8.77;3.13;;;19.60;99.90;;;;;;4964257;28;20058;-75
2023/09/27 10:28:15;;;;;;;6.45;3.20;;;19.70;99.90;;;;;;4963683;28;20119;-74
2023/09/27 10:30:40;;;;;;;4.75;3.00;;;19.70;99.90;;;;;;4967833;28;20041;-74
2023/09/27 10:33:15;;;;;;;6.63;3.05;;;19.80;99.90;;;;;;4968026;28;20027;-75
2023/09/27 10:36:03;;;;;;;5.50;2.88;;;19.90;99.90;;;;;;4966228;28;20034;-75
2023/09/27 10:39:00;;;;;;;11.98;4.22;;;19.90;99.90;;;;;;4965805;28;20034;-74
2023/09/27 10:41:32;;;;;;;6.60;3.15;;;20.00;99.90;;;;;;4969202;28;20503;-75
2023/09/27 10:44:02;;;;;;;4.32;3.05;;;20.00;99.90;;;;;;4969364;28;20109;-75
2023/09/27 10:46:50;;;;;;;5.20;2.72;;;20.10;99.90;;;;;;4969790;28;20073;-75
2023/09/27 10:49:24;;;;;;;3.60;2.58;;;20.10;99.90;;;;;;4968753;28;20102;-75
2023/09/27 10:51:54;;;;;;;3.90;2.63;;;20.20;99.90;;;;;;4968040;28;20110;-74
2023/09/27 10:54:28;;;;;;;5.40;3.00;;;20.30;99.90;;;;;;4966205;28;20085;-74
2023/09/27 10:57:01;;;;;;;6.40;3.22;;;20.40;99.90;;;;;;4968730;28;20022;-74
2023/09/27 10:59:27;;;;;;;;;;;20.50;99.90;;;;;;4970031;28;20030;-75
2023/09/27 11:01:54;;;;;;;6.40;3.80;;;20.50;99.90;;;;;;4967275;28;20388;-75
2023/09/27 11:04:25;;;;;;;7.03;2.90;;;20.60;99.90;;;;;;4983524;28;20035;-74
2023/09/27 11:06:53;;;;;;;5.45;2.85;;;20.60;99.90;;;;;;4968290;28;20378;-74
2023/09/27 11:09:19;;;;;;;6.47;3.05;;;20.70;99.90;;;;;;4971158;28;20136;-74
2023/09/27 11:11:53;;;;;;;9.00;3.15;;;20.70;99.90;;;;;;4967830;28;20062;-75
2023/09/27 11:14:44;;;;;;;4.07;2.33;;;20.80;99.90;;;;;;4966662;28;20370;-75
2023/09/27 11:17:15;;;;;;;4.88;2.40;;;20.90;99.90;;;;;;4968976;28;20401;-74
2023/09/27 11:19:41;;;;;;;5.20;2.53;;;21.00;99.90;;;;;;4969312;28;20385;-75
2023/09/27 11:22:09;;;;;;;5.30;2.90;;;21.00;99.90;;;;;;4967526;28;20027;-75
2023/09/27 11:24:47;;;;;;;7.93;2.63;;;21.20;99.90;;;;;;4980992;28;20486;-75
2023/09/27 11:27:18;;;;;;;4.05;2.70;;;21.30;99.90;;;;;;4967810;28;20050;-75
2023/09/27 11:29:53;;;;;;;5.43;2.40;;;21.30;99.90;;;;;;4982715;28;20031;-75
2023/09/27 11:32:28;;;;;;;4.15;2.60;;;21.30;99.90;;;;;;4968975;28;20039;-75
2023/09/27 11:34:59;;;;;;;3.38;2.08;;;21.40;99.90;;;;;;4969944;28;20027;-75
2023/09/27 11:37:32;;;;;;;5.90;2.45;;;21.40;99.90;;;;;;4988091;28;20101;-75
2023/09/27 11:40:04;;;;;;;3.78;2.25;;;21.40;99.90;;;;;;4973566;28;20019;-75
2023/09/27 11:42:29;;;;;;;4.10;2.40;;;21.50;99.90;;;;;;4973056;28;20050;-76
2023/09/27 11:45:04;;;;;;;4.43;2.17;;;21.50;99.90;;;;;;4971074;28;20381;-76
2023/09/27 11:47:45;;;;;;;4.63;2.03;;;21.60;99.90;;;;;;4986730;28;20085;-75
2023/09/27 11:50:15;;;;;;;3.60;2.22;;;21.60;99.90;;;;;;4970929;28;20054;-75
2023/09/27 11:53:01;;;;;;;6.35;2.63;;;21.70;99.90;;;;;;4972042;28;20061;-75
2023/09/27 11:55:30;;;;;;;4.85;2.00;;;21.80;99.80;;;;;;4968586;28;20205;-74
2023/09/27 11:58:08;;;;;;;2.40;1.90;;;21.80;99.70;;;;;;4969310;28;20085;-76
2023/09/27 12:00:34;;;;;;;3.83;2.58;;;21.90;99.60;;;;;;4970857;28;20389;-75
2023/09/27 12:03:00;;;;;;;5.95;1.92;;;21.90;99.50;;;;;;4971582;28;20027;-75
2023/09/27 12:05:35;;;;;;;2.90;1.92;;;21.90;99.30;;;;;;4971883;28;20027;-75
2023/09/27 12:08:10;;;;;;;4.57;2.00;;;22.00;99.00;;;;;;4972792;28;20433;-76
2023/09/27 12:10:41;;;;;;;5.45;1.80;;;22.10;98.60;;;;;;4975605;28;20520;-76
2023/09/27 12:13:10;;;;;;;2.53;1.88;;;22.10;98.40;;;;;;4965874;28;20038;-76
2023/09/27 12:15:36;;;;;;;4.50;2.10;;;22.20;97.70;;;;;;4967441;28;20113;-76
2023/09/27 12:18:01;;;;;;;2.22;1.50;;;22.20;97.50;;;;;;4964871;28;20042;-76
2023/09/27 12:20:28;;;;;;;3.75;1.95;;;22.20;97.30;;;;;;4969852;28;20048;-77
2023/09/27 12:22:53;;;;;;;5.05;2.28;;;22.30;96.90;;;;;;4965489;28;20026;-75
2023/09/27 12:25:22;;;;;;;5.03;2.92;;;22.30;96.90;;;;;;4964629;28;20122;-77
2023/09/27 12:27:48;;;;;;;4.32;2.03;;;22.30;97.10;;;;;;4979171;28;20042;-76
2023/09/27 12:30:13;;;;;;;2.83;1.70;;;22.40;96.80;;;;;;4962251;28;20658;-74
2023/09/27 12:32:52;;;;;;;2.58;1.52;;;22.50;96.50;;;;;;4970963;28;20485;-75
2023/09/27 12:35:20;;;;;;;4.15;2.20;;;22.50;96.50;;;;;;4968556;28;20637;-75
2023/09/27 12:37:45;;;;;;;4.00;1.60;;;22.50;96.50;;;;;;4976785;28;20413;-75
2023/09/27 12:40:11;;;;;;;2.90;1.65;;;22.50;96.60;;;;;;4960369;28;20037;-74
2023/09/27 12:42:40;;;;;;;5.28;1.88;;;22.50;96.70;;;;;;4969447;28;20015;-75
2023/09/27 12:45:09;;;;;;;5.10;1.60;;;22.60;96.40;;;;;;4966194;28;20034;-75
2023/09/27 12:47:50;;;;;;;3.10;1.63;;;22.60;96.20;;;;;;4966153;28;20053;-75
2023/09/27 12:50:16;;;;;;;4.40;1.85;;;22.70;95.90;;;;;;4965592;28;20185;-75
2023/09/27 12:52:55;;;;;;;4.13;1.80;;;22.70;95.80;;;;;;4964986;28;20109;-76
2023/09/27 12:55:27;;;;;;;2.72;1.67;;;22.80;95.70;;;;;;4966595;28;20031;-75
2023/09/27 12:57:58;;;;;;;2.60;1.65;;;22.90;95.00;;;;;;4970203;28;20115;-75
2023/09/27 13:00:27;;;;;;;2.58;1.60;;;22.90;94.70;;;;;;4963501;28;20035;-75
2023/09/27 13:02:57;;;;;;;2.85;1.92;;;23.00;94.80;;;;;;4963887;28;20065;-71